Caro, Michigan
Current Conditions -  °F | °C
As of 11:35 PM on Thursday 18 Dec 2014 (Local Time) from KCFS Reporting Station
Overcast Overcast  
Wind Chill: -8°   Ceiling: 1500
Heat Index: -3°   Visibility: 10mi
Dew Point: -6°   Wind: 9mph
Humidity: 83%   Direction: 320°NW
Pressure: 30.2"   Gusts: NA
Location:  43.49°N, 83.4°W
Report Text: KCFS 190435Z AUTO 32008KT 10SM OVC015 M03/M06 A3020 RMK AO2 T10311056
Loading
Personal Weather Stations






























Interactive Weather Map New forecast layout! Learn more

10-Day Weather Forecast

Advertisements
Track Severe Weather on mobile